createdAt,value
2022-08-22T20:20:54.795Z,58.80
2022-08-22T20:23:29.833Z,59.00
2022-08-22T20:25:57.445Z,59.10
2022-08-22T20:28:38.950Z,59.20
2022-08-22T20:31:12.389Z,59.20
2022-08-22T20:33:46.129Z,59.30
2022-08-22T20:36:27.801Z,59.50
2022-08-22T20:39:01.792Z,59.50
2022-08-22T20:41:41.483Z,59.50
2022-08-22T20:44:33.260Z,59.70
2022-08-22T20:47:06.131Z,59.80
2022-08-22T20:49:37.699Z,59.50
2022-08-22T20:52:12.600Z,60.00
2022-08-22T20:54:41.455Z,59.60
2022-08-22T20:57:18.172Z,59.60
2022-08-22T21:00:07.231Z,60.00
2022-08-22T21:02:42.739Z,60.60
2022-08-22T21:05:22.344Z,60.80
2022-08-22T21:08:18.861Z,61.00
2022-08-22T21:11:19.313Z,61.20
2022-08-22T21:13:46.207Z,61.40
2022-08-22T21:16:19.866Z,61.40
2022-08-22T21:18:50.887Z,61.70
2022-08-22T21:21:18.132Z,61.60
2022-08-22T21:23:51.253Z,61.80
2022-08-22T21:26:36.532Z,61.60
2022-08-22T21:29:07.684Z,61.20
2022-08-22T21:31:41.567Z,60.90
2022-08-22T21:34:14.583Z,61.00
2022-08-22T21:36:41.883Z,61.00
2022-08-22T21:39:25.000Z,61.00
2022-08-22T21:42:08.817Z,61.20
2022-08-22T21:44:38.111Z,61.40
2022-08-22T21:47:31.909Z,61.30
2022-08-22T21:50:04.041Z,61.50
2022-08-22T21:52:39.553Z,61.40
2022-08-22T21:55:34.446Z,61.50
2022-08-22T21:58:34.172Z,61.80
2022-08-22T22:01:24.943Z,62.10
2022-08-22T22:03:54.477Z,62.30
2022-08-22T22:06:21.446Z,62.40
2022-08-22T22:08:49.130Z,62.40
2022-08-22T22:11:17.410Z,62.60
2022-08-22T22:13:44.424Z,62.80
2022-08-22T22:16:14.625Z,63.00
2022-08-22T22:18:41.510Z,63.10
2022-08-22T22:21:09.175Z,63.30
2022-08-22T22:23:36.172Z,63.50
2022-08-22T22:26:05.329Z,63.70
2022-08-22T22:28:39.087Z,63.80
2022-08-22T22:31:06.164Z,63.90
2022-08-22T22:33:39.446Z,63.80
2022-08-22T22:36:13.056Z,63.90
2022-08-22T22:38:40.965Z,64.10
2022-08-22T22:41:08.356Z,64.20
2022-08-22T22:43:35.238Z,64.40
2022-08-22T22:46:02.188Z,64.40
2022-08-22T22:48:29.370Z,64.50
2022-08-22T22:50:56.140Z,64.70
2022-08-22T22:53:33.858Z,64.70
2022-08-22T22:56:10.323Z,64.80
2022-08-22T22:58:38.942Z,64.70
2022-08-22T23:01:12.989Z,64.80
2022-08-22T23:03:39.876Z,65.10
2022-08-22T23:06:15.718Z,65.10
2022-08-22T23:08:42.829Z,65.30
2022-08-22T23:11:25.503Z,65.30
2022-08-22T23:13:52.634Z,65.60
2022-08-22T23:16:23.670Z,65.60
2022-08-22T23:18:50.624Z,65.80
2022-08-22T23:21:24.624Z,65.80
2022-08-22T23:23:56.559Z,65.70
2022-08-22T23:26:23.759Z,65.50
2022-08-22T23:28:50.846Z,65.50
2022-08-22T23:31:31.523Z,65.70
2022-08-22T23:34:04.623Z,65.80
2022-08-22T23:36:31.588Z,65.70
2022-08-22T23:38:58.412Z,65.60
2022-08-22T23:41:25.239Z,65.50
2022-08-22T23:43:54.795Z,65.50
2022-08-22T23:46:24.174Z,65.60
2022-08-22T23:48:51.392Z,65.60
2022-08-22T23:51:23.084Z,65.60
2022-08-22T23:53:54.145Z,65.80
2022-08-22T23:56:36.594Z,66.00
2022-08-22T23:59:06.086Z,66.10
